Decoded Metar for PAIN (MCKINLEY PARK in AK, USA) (IATA:INR) | Meteo·Mobile Aviation Weather
aviador You're here:

PAIN Decoded Metar

MCKINLEY PARK in AK, USA
Report Time2019-02-19 23:10:00
UTC Time2019-02-20 00:54:53
Flight Rules Old
Wind020° at 05 kt
W.Decomp.*RWY 34: 4.9 kt HW 1.1 kt RCW
W.Rank020° ranks 6
Current wind is below 020° avg. (6.9)
Visibility9999 m
Phenomena:N/A
Clouds:Few 028 Hf
Scattered 034 Hf
Overcast 045 Hf
Expected CloudBase > 2,400 ft AGL from Temp-Dew spread
Ceiling4,500 ft
Temp-7°C (ISA -19)
Dew Point-13°C (63% RH)
AAT-12.0°C
QNH1020 hPa
Density Alt-781 ft
Elevation1,719 ft
Report Wrong Elevation
Raw Report
PAIN 192310Z 02005KT 10SM FEW028 SCT034 OVC045 M07/M13 A3012 RMK
AO2 FZRANO=

Extra information for PAIN:More info

Metar Taf Metar & Taf Last 4 Metars F.Rules Stats Wind Profile Meteogram Temp Stats Airport Information Weather charts Add Link Nearby VenuesMetar ALERT Operation Metar Decoded Social comments

AIRNAV info for PAIN